sensor_id;sensor_type;location;lat;lon;timestamp;pressure;altitude;pressure_sealevel;temperature;humidity
62544;BME280;48597;49.030;1.822;2022-09-17T00:00:47;101257.63;;;22.45;48.87
62544;BME280;48597;49.030;1.822;2022-09-17T00:03:16;101259.47;;;22.45;48.85
62544;BME280;48597;49.030;1.822;2022-09-17T00:05:42;101253.28;;;22.44;48.83
62544;BME280;48597;49.030;1.822;2022-09-17T00:08:11;101261.16;;;22.46;48.86
62544;BME280;48597;49.030;1.822;2022-09-17T00:10:40;101257.75;;;22.44;48.80
62544;BME280;48597;49.030;1.822;2022-09-17T00:13:06;101263.13;;;22.44;49.00
62544;BME280;48597;49.030;1.822;2022-09-17T00:15:32;101256.94;;;22.43;48.93
62544;BME280;48597;49.030;1.822;2022-09-17T00:17:57;101260.44;;;22.44;49.02
62544;BME280;48597;49.030;1.822;2022-09-17T00:20:24;101263.13;;;22.44;49.11
62544;BME280;48597;49.030;1.822;2022-09-17T00:22:50;101270.34;;;22.43;49.17
62544;BME280;48597;49.030;1.822;2022-09-17T00:25:16;101262.63;;;22.40;49.17
62544;BME280;48597;49.030;1.822;2022-09-17T00:27:41;101267.81;;;22.42;49.18
62544;BME280;48597;49.030;1.822;2022-09-17T00:30:07;101275.03;;;22.41;49.25
62544;BME280;48597;49.030;1.822;2022-09-17T00:32:33;101267.13;;;22.40;49.14
62544;BME280;48597;49.030;1.822;2022-09-17T00:34:58;101274.19;;;22.41;49.17
62544;BME280;48597;49.030;1.822;2022-09-17T00:37:23;101273.34;;;22.40;49.23
62544;BME280;48597;49.030;1.822;2022-09-17T00:39:49;101269.81;;;22.40;49.17
62544;BME280;48597;49.030;1.822;2022-09-17T00:42:15;101268.97;;;22.39;49.21
62544;BME280;48597;49.030;1.822;2022-09-17T00:44:53;101267.28;;;22.38;49.14
62544;BME280;48597;49.030;1.822;2022-09-17T00:50:02;101275.34;;;22.38;49.12
62544;BME280;48597;49.030;1.822;2022-09-17T00:52:53;101271.81;;;22.38;49.19
62544;BME280;48597;49.030;1.822;2022-09-17T00:55:24;101278.19;;;22.37;49.01
62544;BME280;48597;49.030;1.822;2022-09-17T00:57:54;101274.50;;;22.38;48.97
62544;BME280;48597;49.030;1.822;2022-09-17T01:00:21;101278.19;;;22.37;48.91
62544;BME280;48597;49.030;1.822;2022-09-17T01:02:47;101283.56;;;22.37;49.06
62544;BME280;48597;49.030;1.822;2022-09-17T01:05:13;101280.88;;;22.37;48.94
62544;BME280;48597;49.030;1.822;2022-09-17T01:08:00;101289.03;;;22.35;49.27
62544;BME280;48597;49.030;1.822;2022-09-17T01:10:52;101287.38;;;22.34;49.14
62544;BME280;48597;49.030;1.822;2022-09-17T01:13:27;101292.91;;;22.33;49.05
62544;BME280;48597;49.030;1.822;2022-09-17T01:19:25;101285.00;;;22.31;49.04
62544;BME280;48597;49.030;1.822;2022-09-17T01:25:19;101291.19;;;22.32;49.00
62544;BME280;48597;49.030;1.822;2022-09-17T01:33:45;101287.84;;;22.29;49.04
62544;BME280;48597;49.030;1.822;2022-09-17T01:41:50;101296.72;;;22.30;48.96
62544;BME280;48597;49.030;1.822;2022-09-17T01:47:09;101291.53;;;22.28;48.78
62544;BME280;48597;49.030;1.822;2022-09-17T01:49:37;101290.53;;;22.29;48.70
62544;BME280;48597;49.030;1.822;2022-09-17T01:52:04;101298.56;;;22.29;48.75
62544;BME280;48597;49.030;1.822;2022-09-17T01:54:37;101297.88;;;22.27;48.70
62544;BME280;48597;49.030;1.822;2022-09-17T01:57:18;101291.66;;;22.27;48.64
62544;BME280;48597;49.030;1.822;2022-09-17T02:02:44;101298.88;;;22.26;48.66
62544;BME280;48597;49.030;1.822;2022-09-17T02:05:22;101301.56;;;22.26;48.62
62544;BME280;48597;49.030;1.822;2022-09-17T02:08:05;101298.88;;;22.26;48.70
62544;BME280;48597;49.030;1.822;2022-09-17T02:10:36;101293.50;;;22.26;48.63
62544;BME280;48597;49.030;1.822;2022-09-17T02:13:10;101292.84;;;22.24;48.58
62544;BME280;48597;49.030;1.822;2022-09-17T02:15:42;101294.50;;;22.25;48.58
62544;BME280;48597;49.030;1.822;2022-09-17T02:18:19;101287.47;;;22.24;48.67
62544;BME280;48597;49.030;1.822;2022-09-17T02:20:56;101296.34;;;22.25;48.50
62544;BME280;48597;49.030;1.822;2022-09-17T02:23:28;101289.16;;;22.25;48.65
62544;BME280;48597;49.030;1.822;2022-09-17T02:26:03;101293.81;;;22.23;48.79
62544;BME280;48597;49.030;1.822;2022-09-17T02:28:41;101300.00;;;22.24;48.60
62544;BME280;48597;49.030;1.822;2022-09-17T02:31:09;101290.16;;;22.24;48.58
62544;BME280;48597;49.030;1.822;2022-09-17T02:33:37;101283.09;;;22.23;48.57
62544;BME280;48597;49.030;1.822;2022-09-17T02:36:06;101286.59;;;22.24;48.46
62544;BME280;48597;49.030;1.822;2022-09-17T02:38:32;101278.72;;;22.22;48.50
62544;BME280;48597;49.030;1.822;2022-09-17T02:41:11;101279.56;;;22.23;48.45
62544;BME280;48597;49.030;1.822;2022-09-17T02:52:10;101282.41;;;22.21;48.41
62544;BME280;48597;49.030;1.822;2022-09-17T02:54:51;101278.91;;;22.21;48.46
62544;BME280;48597;49.030;1.822;2022-09-17T02:57:33;101279.72;;;22.21;48.52
62544;BME280;48597;49.030;1.822;2022-09-17T03:00:11;101285.94;;;22.22;48.44
62544;BME280;48597;49.030;1.822;2022-09-17T03:05:34;101278.91;;;22.21;48.52
62544;BME280;48597;49.030;1.822;2022-09-17T03:08:00;101285.22;;;22.20;48.42
62544;BME280;48597;49.030;1.822;2022-09-17T03:10:26;101285.22;;;22.20;48.30
62544;BME280;48597;49.030;1.822;2022-09-17T03:12:54;101286.06;;;22.20;48.33
62544;BME280;48597;49.030;1.822;2022-09-17T03:15:19;101286.22;;;22.19;48.21
62544;BME280;48597;49.030;1.822;2022-09-17T03:17:45;101293.44;;;22.18;48.29
62544;BME280;48597;49.030;1.822;2022-09-17T03:20:10;101291.59;;;22.19;48.03
62544;BME280;48597;49.030;1.822;2022-09-17T03:22:35;101288.06;;;22.18;48.14
62544;BME280;48597;49.030;1.822;2022-09-17T03:25:01;101297.97;;;22.18;48.20
62544;BME280;48597;49.030;1.822;2022-09-17T03:27:26;101296.13;;;22.18;48.40
62544;BME280;48597;49.030;1.822;2022-09-17T03:29:52;101296.28;;;22.17;48.17
62544;BME280;48597;49.030;1.822;2022-09-17T03:32:17;101298.09;;;22.16;48.21
62544;BME280;48597;49.030;1.822;2022-09-17T03:34:42;101300.66;;;22.18;48.02
62544;BME280;48597;49.030;1.822;2022-09-17T03:37:08;101304.47;;;22.15;47.98
62544;BME280;48597;49.030;1.822;2022-09-17T03:39:33;101305.16;;;22.17;47.84
62544;BME280;48597;49.030;1.822;2022-09-17T03:41:59;101299.09;;;22.15;47.94
62544;BME280;48597;49.030;1.822;2022-09-17T03:44:24;101299.09;;;22.15;47.99
62544;BME280;48597;49.030;1.822;2022-09-17T03:46:50;101310.66;;;22.16;48.00
62544;BME280;48597;49.030;1.822;2022-09-17T03:49:15;101310.00;;;22.14;48.10
62544;BME280;48597;49.030;1.822;2022-09-17T03:51:41;101303.63;;;22.15;48.04
62544;BME280;48597;49.030;1.822;2022-09-17T03:54:06;101308.16;;;22.14;48.06
62544;BME280;48597;49.030;1.822;2022-09-17T03:56:32;101310.00;;;22.14;48.07
62544;BME280;48597;49.030;1.822;2022-09-17T03:58:58;101306.47;;;22.13;48.20
62544;BME280;48597;49.030;1.822;2022-09-17T04:01:24;101309.16;;;22.13;47.86
62544;BME280;48597;49.030;1.822;2022-09-17T04:03:49;101314.50;;;22.13;47.92
62544;BME280;48597;49.030;1.822;2022-09-17T04:06:14;101311.94;;;22.12;47.96
62544;BME280;48597;49.030;1.822;2022-09-17T04:08:40;101315.44;;;22.12;47.92
62544;BME280;48597;49.030;1.822;2022-09-17T04:11:05;101326.34;;;22.11;47.80
62544;BME280;48597;49.030;1.822;2022-09-17T04:13:31;101330.69;;;22.12;47.82
62544;BME280;48597;49.030;1.822;2022-09-17T04:15:57;101329.84;;;22.11;47.85
62544;BME280;48597;49.030;1.822;2022-09-17T04:18:22;101336.06;;;22.12;47.71
62544;BME280;48597;49.030;1.822;2022-09-17T04:20:47;101330.84;;;22.10;47.90
62544;BME280;48597;49.030;1.822;2022-09-17T04:23:13;101327.19;;;22.11;47.80
62544;BME280;48597;49.030;1.822;2022-09-17T04:25:39;101326.34;;;22.11;47.80
62544;BME280;48597;49.030;1.822;2022-09-17T04:28:04;101325.50;;;22.10;47.80
62544;BME280;48597;49.030;1.822;2022-09-17T04:30:30;101326.50;;;22.09;47.77
62544;BME280;48597;49.030;1.822;2022-09-17T04:32:56;101325.50;;;22.10;47.75
62544;BME280;48597;49.030;1.822;2022-09-17T04:35:21;101329.19;;;22.09;47.70
62544;BME280;48597;49.030;1.822;2022-09-17T04:37:54;101330.16;;;22.08;47.76
62544;BME280;48597;49.030;1.822;2022-09-17T04:40:20;101328.47;;;22.07;47.68
62544;BME280;48597;49.030;1.822;2022-09-17T04:42:46;101337.34;;;22.08;47.68
62544;BME280;48597;49.030;1.822;2022-09-17T04:45:12;101330.16;;;22.08;47.55
62544;BME280;48597;49.030;1.822;2022-09-17T04:47:38;101337.34;;;22.08;47.55
62544;BME280;48597;49.030;1.822;2022-09-17T04:50:04;101326.81;;;22.06;47.84
62544;BME280;48597;49.030;1.822;2022-09-17T04:52:29;101329.47;;;22.06;47.68
62544;BME280;48597;49.030;1.822;2022-09-17T04:54:55;101330.31;;;22.06;47.63
62544;BME280;48597;49.030;1.822;2022-09-17T04:57:20;101339.19;;;22.07;47.62
62544;BME280;48597;49.030;1.822;2022-09-17T04:59:47;101339.50;;;22.04;47.51
62544;BME280;48597;49.030;1.822;2022-09-17T05:02:12;101347.41;;;22.05;47.56
62544;BME280;48597;49.030;1.822;2022-09-17T05:04:38;101340.34;;;22.04;47.65
62544;BME280;48597;49.030;1.822;2022-09-17T05:07:03;101341.34;;;22.03;47.76
62544;BME280;48597;49.030;1.822;2022-09-17T05:09:29;101343.19;;;22.03;47.66
62544;BME280;48597;49.030;1.822;2022-09-17T05:11:54;101337.81;;;22.03;47.64
62544;BME280;48597;49.030;1.822;2022-09-17T05:14:19;101343.34;;;22.01;47.65
62544;BME280;48597;49.030;1.822;2022-09-17T05:16:45;101346.88;;;22.02;47.65
62544;BME280;48597;49.030;1.822;2022-09-17T05:19:11;101345.03;;;22.02;47.43
62544;BME280;48597;49.030;1.822;2022-09-17T05:21:36;101339.81;;;22.01;47.50
62544;BME280;48597;49.030;1.822;2022-09-17T05:24:01;101343.34;;;22.01;47.57
62544;BME280;48597;49.030;1.822;2022-09-17T05:26:27;101354.06;;;22.01;47.50
62544;BME280;48597;49.030;1.822;2022-09-17T05:28:53;101353.22;;;22.01;47.39
62544;BME280;48597;49.030;1.822;2022-09-17T05:31:19;101340.97;;;21.98;47.44
62544;BME280;48597;49.030;1.822;2022-09-17T05:33:44;101351.50;;;22.00;47.45
62544;BME280;48597;49.030;1.822;2022-09-17T05:36:09;101355.03;;;22.00;47.42
62544;BME280;48597;49.030;1.822;2022-09-17T05:38:35;101347.00;;;22.00;47.31
62544;BME280;48597;49.030;1.822;2022-09-17T05:41:05;101352.34;;;22.00;47.46
62544;BME280;48597;49.030;1.822;2022-09-17T05:43:31;101346.16;;;22.00;47.36
62544;BME280;48597;49.030;1.822;2022-09-17T05:46:01;101353.53;;;21.98;47.51
62544;BME280;48597;49.030;1.822;2022-09-17T05:48:26;101353.53;;;21.98;47.18
62544;BME280;48597;49.030;1.822;2022-09-17T05:50:53;101358.88;;;21.98;47.53
62544;BME280;48597;49.030;1.822;2022-09-17T05:53:19;101349.84;;;21.99;47.48
62544;BME280;48597;49.030;1.822;2022-09-17T05:55:44;101357.88;;;21.99;47.38
62544;BME280;48597;49.030;1.822;2022-09-17T05:58:13;101359.72;;;21.98;47.45
62544;BME280;48597;49.030;1.822;2022-09-17T06:00:39;101368.75;;;21.97;47.42
62544;BME280;48597;49.030;1.822;2022-09-17T06:03:06;101362.56;;;21.97;47.54
62544;BME280;48597;49.030;1.822;2022-09-17T06:05:32;101368.75;;;21.97;47.46
62544;BME280;48597;49.030;1.822;2022-09-17T06:07:57;101366.22;;;21.96;47.28
62544;BME280;48597;49.030;1.822;2022-09-17T06:10:23;101375.09;;;21.96;47.42
62544;BME280;48597;49.030;1.822;2022-09-17T06:12:54;101384.00;;;21.97;47.52
62544;BME280;48597;49.030;1.822;2022-09-17T06:15:20;101386.69;;;21.97;47.49
62544;BME280;48597;49.030;1.822;2022-09-17T06:17:45;101388.50;;;21.96;47.56
62544;BME280;48597;49.030;1.822;2022-09-17T06:20:11;101393.00;;;21.96;47.50
62544;BME280;48597;49.030;1.822;2022-09-17T06:22:36;101391.16;;;21.96;47.49
62544;BME280;48597;49.030;1.822;2022-09-17T06:25:02;101387.81;;;21.94;47.26
62544;BME280;48597;49.030;1.822;2022-09-17T06:27:31;101382.28;;;21.96;47.47
62544;BME280;48597;49.030;1.822;2022-09-17T06:29:58;101390.50;;;21.94;47.31
62544;BME280;48597;49.030;1.822;2022-09-17T06:32:23;101387.66;;;21.96;47.35
62544;BME280;48597;49.030;1.822;2022-09-17T06:34:49;101388.50;;;21.96;47.11
62544;BME280;48597;49.030;1.822;2022-09-17T06:37:14;101382.28;;;21.96;47.39
62544;BME280;48597;49.030;1.822;2022-09-17T06:39:40;101379.59;;;21.96;47.20
62544;BME280;48597;49.030;1.822;2022-09-17T06:42:05;101388.50;;;21.96;47.05
62544;BME280;48597;49.030;1.822;2022-09-17T06:44:31;101386.69;;;21.97;46.95
62544;BME280;48597;49.030;1.822;2022-09-17T06:46:56;101388.34;;;21.98;47.13
62544;BME280;48597;49.030;1.822;2022-09-17T06:49:22;101385.69;;;21.98;47.08
62544;BME280;48597;49.030;1.822;2022-09-17T06:51:48;101376.63;;;21.99;46.97
62544;BME280;48597;49.030;1.822;2022-09-17T06:54:13;101389.03;;;22.00;47.63
62544;BME280;48597;49.030;1.822;2022-09-17T06:56:39;101390.75;;;22.01;47.53
62544;BME280;48597;49.030;1.822;2022-09-17T06:59:04;101386.91;;;22.03;47.77
62544;BME280;48597;49.030;1.822;2022-09-17T07:01:29;101390.41;;;22.04;47.57
62544;BME280;48597;49.030;1.822;2022-09-17T07:03:55;101393.94;;;22.04;47.57
62544;BME280;48597;49.030;1.822;2022-09-17T07:06:20;101391.13;;;22.06;47.36
62544;BME280;48597;49.030;1.822;2022-09-17T07:08:45;101389.28;;;22.06;47.05
62544;BME280;48597;49.030;1.822;2022-09-17T07:11:11;101391.97;;;22.06;46.79
62544;BME280;48597;49.030;1.822;2022-09-17T07:13:37;101399.16;;;22.06;45.97
62544;BME280;48597;49.030;1.822;2022-09-17T07:16:03;101396.31;;;22.08;46.06
62544;BME280;48597;49.030;1.822;2022-09-17T07:18:30;101402.22;;;22.11;46.96
62544;BME280;48597;49.030;1.822;2022-09-17T07:20:58;101392.06;;;22.15;47.21
62544;BME280;48597;49.030;1.822;2022-09-17T07:23:28;101397.97;;;22.18;47.28
62544;BME280;48597;49.030;1.822;2022-09-17T07:26:14;101394.72;;;22.24;47.13
62544;BME280;48597;49.030;1.822;2022-09-17T07:28:40;101394.09;;;22.48;46.61
62544;BME280;48597;49.030;1.822;2022-09-17T07:31:06;101395.44;;;22.88;45.88
62544;BME280;48597;49.030;1.822;2022-09-17T07:33:33;101392.69;;;23.24;45.05
62544;BME280;48597;49.030;1.822;2022-09-17T07:36:05;101390.66;;;23.52;44.51
62544;BME280;48597;49.030;1.822;2022-09-17T07:38:30;101390.97;;;23.75;44.25
62544;BME280;48597;49.030;1.822;2022-09-17T07:40:58;101387.16;;;23.94;43.17
62544;BME280;48597;49.030;1.822;2022-09-17T07:43:25;101390.03;;;24.09;42.87
62544;BME280;48597;49.030;1.822;2022-09-17T07:45:50;101400.66;;;24.18;42.91
62544;BME280;48597;49.030;1.822;2022-09-17T07:48:16;101383.53;;;24.36;42.86
62544;BME280;48597;49.030;1.822;2022-09-17T07:50:42;101384.44;;;24.53;42.49
62544;BME280;48597;49.030;1.822;2022-09-17T07:53:07;101387.97;;;24.69;41.89
62544;BME280;48597;49.030;1.822;2022-09-17T07:55:32;101388.28;;;24.83;41.52
62544;BME280;48597;49.030;1.822;2022-09-17T07:57:58;101390.31;;;24.97;41.29
62544;BME280;48597;49.030;1.822;2022-09-17T08:00:23;101383.25;;;25.12;40.74
62544;BME280;48597;49.030;1.822;2022-09-17T08:02:53;101383.53;;;25.26;40.38
62544;BME280;48597;49.030;1.822;2022-09-17T08:05:18;101394.25;;;25.42;39.86
62544;BME280;48597;49.030;1.822;2022-09-17T08:07:48;101385.81;;;25.53;39.38
62544;BME280;48597;49.030;1.822;2022-09-17T08:10:14;101387.44;;;25.70;39.21
62544;BME280;48597;49.030;1.822;2022-09-17T08:12:39;101389.41;;;25.77;38.73
62544;BME280;48597;49.030;1.822;2022-09-17T08:15:05;101392.59;;;25.88;38.57
62544;BME280;48597;49.030;1.822;2022-09-17T08:17:31;101396.28;;;25.95;38.41
62544;BME280;48597;49.030;1.822;2022-09-17T08:19:56;101393.75;;;25.94;38.35
62544;BME280;48597;49.030;1.822;2022-09-17T08:22:21;101400.81;;;25.95;38.54
62544;BME280;48597;49.030;1.822;2022-09-17T08:24:47;101405.94;;;25.82;38.46
62544;BME280;48597;49.030;1.822;2022-09-17T08:27:12;101410.50;;;24.68;40.71
62544;BME280;48597;49.030;1.822;2022-09-17T08:29:37;101409.72;;;24.09;42.22
62544;BME280;48597;49.030;1.822;2022-09-17T08:32:03;101405.91;;;23.77;42.98
62544;BME280;48597;49.030;1.822;2022-09-17T08:34:28;101406.59;;;23.53;43.87
62544;BME280;48597;49.030;1.822;2022-09-17T08:36:53;101414.44;;;23.39;44.23
62544;BME280;48597;49.030;1.822;2022-09-17T08:39:19;101418.06;;;23.30;44.39
62544;BME280;48597;49.030;1.822;2022-09-17T08:41:47;101417.34;;;23.19;44.95
62544;BME280;48597;49.030;1.822;2022-09-17T08:46:49;101425.78;;;23.07;45.54
62544;BME280;48597;49.030;1.822;2022-09-17T08:52:18;101427.44;;;22.99;45.55
62544;BME280;48597;49.030;1.822;2022-09-17T08:57:43;101426.19;;;22.94;45.67
62544;BME280;48597;49.030;1.822;2022-09-17T09:00:15;101422.84;;;22.92;45.72
62544;BME280;48597;49.030;1.822;2022-09-17T09:03:06;101421.25;;;22.89;45.97
62544;BME280;48597;49.030;1.822;2022-09-17T09:05:45;101434.69;;;22.89;45.94
62544;BME280;48597;49.030;1.822;2022-09-17T09:10:58;101423.72;;;22.83;46.58
62544;BME280;48597;49.030;1.822;2022-09-17T09:13:28;101424.72;;;22.82;46.47
62544;BME280;48597;49.030;1.822;2022-09-17T09:16:02;101430.25;;;22.80;46.35
62544;BME280;48597;49.030;1.822;2022-09-17T09:18:33;101434.78;;;22.79;46.57
62544;BME280;48597;49.030;1.822;2022-09-17T09:24:15;101439.63;;;22.76;46.80
62544;BME280;48597;49.030;1.822;2022-09-17T09:26:46;101444.28;;;22.74;47.00
62544;BME280;48597;49.030;1.822;2022-09-17T09:31:46;101445.75;;;22.68;47.27
62544;BME280;48597;49.030;1.822;2022-09-17T09:34:16;101446.06;;;22.65;47.38
62544;BME280;48597;49.030;1.822;2022-09-17T09:36:41;101449.56;;;22.66;47.66
62544;BME280;48597;49.030;1.822;2022-09-17T09:39:14;101448.03;;;22.63;47.59
62544;BME280;48597;49.030;1.822;2022-09-17T09:41:48;101450.72;;;22.63;47.49
62544;BME280;48597;49.030;1.822;2022-09-17T09:44:15;101454.41;;;22.62;47.37
62544;BME280;48597;49.030;1.822;2022-09-17T09:52:42;101455.53;;;22.60;47.67
62544;BME280;48597;49.030;1.822;2022-09-17T09:58:00;101460.06;;;22.59;47.55
62544;BME280;48597;49.030;1.822;2022-09-17T10:00:32;101455.88;;;22.57;47.65
62544;BME280;48597;49.030;1.822;2022-09-17T10:05:27;101451.34;;;22.57;47.84
62544;BME280;48597;49.030;1.822;2022-09-17T10:07:53;101444.13;;;22.58;47.86
62544;BME280;48597;49.030;1.822;2022-09-17T10:10:18;101448.66;;;22.57;47.66
62544;BME280;48597;49.030;1.822;2022-09-17T10:12:44;101449.50;;;22.58;47.69
62544;BME280;48597;49.030;1.822;2022-09-17T10:15:27;101443.44;;;22.55;47.64
62544;BME280;48597;49.030;1.822;2022-09-17T10:18:15;101446.28;;;22.54;47.68
62544;BME280;48597;49.030;1.822;2022-09-17T10:20:59;101447.81;;;22.57;47.52
62544;BME280;48597;49.030;1.822;2022-09-17T10:23:31;101448.66;;;22.57;47.67
62544;BME280;48597;49.030;1.822;2022-09-17T10:25:58;101448.66;;;22.57;47.80
62544;BME280;48597;49.030;1.822;2022-09-17T10:28:44;101455.03;;;22.56;47.93
62544;BME280;48597;49.030;1.822;2022-09-17T10:31:12;101450.63;;;22.55;47.80
62544;BME280;48597;49.030;1.822;2022-09-17T10:34:04;101447.94;;;22.55;47.93
62544;BME280;48597;49.030;1.822;2022-09-17T10:36:36;101448.97;;;22.54;48.04
62544;BME280;48597;49.030;1.822;2022-09-17T10:39:29;101449.97;;;22.53;47.88
62544;BME280;48597;49.030;1.822;2022-09-17T10:44:33;101446.28;;;22.54;47.65
62544;BME280;48597;49.030;1.822;2022-09-17T10:47:39;101446.28;;;22.54;47.92
62544;BME280;48597;49.030;1.822;2022-09-17T10:50:25;101444.31;;;22.56;47.78
62544;BME280;48597;49.030;1.822;2022-09-17T10:52:54;101439.78;;;22.57;47.89
62544;BME280;48597;49.030;1.822;2022-09-17T10:55:37;101430.88;;;22.56;47.85
62544;BME280;48597;49.030;1.822;2022-09-17T11:03:58;101433.03;;;22.52;47.79
62544;BME280;48597;49.030;1.822;2022-09-17T11:09:50;101429.34;;;22.53;47.67
62544;BME280;48597;49.030;1.822;2022-09-17T11:15:59;101419.63;;;22.52;47.95
62544;BME280;48597;49.030;1.822;2022-09-17T11:18:40;101424.97;;;22.52;47.80
62544;BME280;48597;49.030;1.822;2022-09-17T11:21:34;101424.16;;;22.52;47.59
62544;BME280;48597;49.030;1.822;2022-09-17T11:24:26;101420.47;;;22.53;47.47
62544;BME280;48597;49.030;1.822;2022-09-17T11:27:10;101408.72;;;22.54;47.68
62544;BME280;48597;49.030;1.822;2022-09-17T11:29:52;101397.00;;;22.55;47.33
62544;BME280;48597;49.030;1.822;2022-09-17T11:35:19;101397.16;;;22.53;47.50
62544;BME280;48597;49.030;1.822;2022-09-17T11:40:41;101408.56;;;22.55;47.47
62544;BME280;48597;49.030;1.822;2022-09-17T11:43:28;101399.66;;;22.55;47.51
62544;BME280;48597;49.030;1.822;2022-09-17T11:46:37;101414.94;;;22.54;47.44
62544;BME280;48597;49.030;1.822;2022-09-17T11:49:04;101408.56;;;22.55;47.57
62544;BME280;48597;49.030;1.822;2022-09-17T11:51:35;101413.09;;;22.55;47.73
62544;BME280;48597;49.030;1.822;2022-09-17T11:57:24;101407.72;;;22.55;47.75
62544;BME280;48597;49.030;1.822;2022-09-17T11:59:55;101404.06;;;22.56;47.93
62544;BME280;48597;49.030;1.822;2022-09-17T12:05:20;101399.38;;;22.58;47.72
62544;BME280;48597;49.030;1.822;2022-09-17T12:16:26;101393.34;;;22.56;47.35
62544;BME280;48597;49.030;1.822;2022-09-17T12:21:42;101399.53;;;22.57;47.14
62544;BME280;48597;49.030;1.822;2022-09-17T12:37:45;101385.97;;;22.58;47.62
62544;BME280;48597;49.030;1.822;2022-09-17T12:46:05;101390.50;;;22.58;47.97
62544;BME280;48597;49.030;1.822;2022-09-17T12:51:51;101383.81;;;22.62;47.76
62544;BME280;48597;49.030;1.822;2022-09-17T13:00:08;101380.13;;;22.63;48.18
62544;BME280;48597;49.030;1.822;2022-09-17T13:06:26;101367.41;;;22.65;48.01
62544;BME280;48597;49.030;1.822;2022-09-17T13:16:57;101370.22;;;22.63;48.19
62544;BME280;48597;49.030;1.822;2022-09-17T13:21:59;101376.47;;;22.64;48.17
62544;BME280;48597;49.030;1.822;2022-09-17T13:24:26;101376.47;;;22.64;48.07
62544;BME280;48597;49.030;1.822;2022-09-17T13:26:55;101369.25;;;22.64;47.99
62544;BME280;48597;49.030;1.822;2022-09-17T13:35:27;101361.22;;;22.64;48.07
62544;BME280;48597;49.030;1.822;2022-09-17T13:40:23;101360.22;;;22.65;48.14
62544;BME280;48597;49.030;1.822;2022-09-17T13:42:52;101375.28;;;22.66;48.14
62544;BME280;48597;49.030;1.822;2022-09-17T13:45:23;101367.25;;;22.66;48.21
62544;BME280;48597;49.030;1.822;2022-09-17T13:47:52;101363.56;;;22.67;48.20
62544;BME280;48597;49.030;1.822;2022-09-17T13:50:27;101361.75;;;22.68;48.14
62544;BME280;48597;49.030;1.822;2022-09-17T13:52:57;101356.38;;;22.68;48.20
62544;BME280;48597;49.030;1.822;2022-09-17T13:55:37;101351.84;;;22.68;48.27
62544;BME280;48597;49.030;1.822;2022-09-17T13:58:49;101344.78;;;22.67;48.16
62544;BME280;48597;49.030;1.822;2022-09-17T14:01:01;101345.66;;;22.68;48.22
62544;BME280;48597;49.030;1.822;2022-09-17T14:05:53;101360.75;;;22.69;48.53
62544;BME280;48597;49.030;1.822;2022-09-17T14:09:12;101356.22;;;22.69;48.87
62544;BME280;48597;49.030;1.822;2022-09-17T14:24:45;101350.00;;;22.69;48.87
62544;BME280;48597;49.030;1.822;2022-09-17T14:30:24;101348.34;;;22.68;48.70
62544;BME280;48597;49.030;1.822;2022-09-17T14:35:41;101345.47;;;22.69;48.86
62544;BME280;48597;49.030;1.822;2022-09-17T14:38:20;101341.13;;;22.68;48.84
62544;BME280;48597;49.030;1.822;2022-09-17T14:46:10;101356.22;;;22.69;49.23
62544;BME280;48597;49.030;1.822;2022-09-17T14:48:39;101337.44;;;22.69;49.20
62544;BME280;48597;49.030;1.822;2022-09-17T14:53:47;101342.78;;;22.69;49.27
62544;BME280;48597;49.030;1.822;2022-09-17T14:56:16;101340.94;;;22.70;49.05
62544;BME280;48597;49.030;1.822;2022-09-17T14:58:46;101338.44;;;22.68;49.16
62544;BME280;48597;49.030;1.822;2022-09-17T15:01:23;101337.44;;;22.69;49.41
62544;BME280;48597;49.030;1.822;2022-09-17T15:03:49;101332.06;;;22.69;49.48
62544;BME280;48597;49.030;1.822;2022-09-17T15:06:31;101339.09;;;22.70;49.74
62544;BME280;48597;49.030;1.822;2022-09-17T15:08:57;101344.47;;;22.70;49.89
62544;BME280;48597;49.030;1.822;2022-09-17T15:11:22;101343.63;;;22.70;50.33
62544;BME280;48597;49.030;1.822;2022-09-17T15:13:51;101345.31;;;22.71;50.61
62544;BME280;48597;49.030;1.822;2022-09-17T15:16:27;101348.84;;;22.71;50.41
62544;BME280;48597;49.030;1.822;2022-09-17T15:18:56;101332.72;;;22.71;50.70
62544;BME280;48597;49.030;1.822;2022-09-17T15:23:58;101344.34;;;22.72;51.27
62544;BME280;48597;49.030;1.822;2022-09-17T15:26:30;101340.78;;;22.71;51.27
62544;BME280;48597;49.030;1.822;2022-09-17T15:28:59;101344.16;;;22.73;51.45
62544;BME280;48597;49.030;1.822;2022-09-17T15:31:27;101334.44;;;22.72;51.69
62544;BME280;48597;49.030;1.822;2022-09-17T15:33:53;101330.75;;;22.73;51.57
62544;BME280;48597;49.030;1.822;2022-09-17T15:36:26;101335.28;;;22.73;51.84
62544;BME280;48597;49.030;1.822;2022-09-17T15:38:54;101344.16;;;22.73;52.03
62544;BME280;48597;49.030;1.822;2022-09-17T15:41:26;101351.22;;;22.74;52.28
62544;BME280;48597;49.030;1.822;2022-09-17T15:43:52;101344.16;;;22.73;51.66
62544;BME280;48597;49.030;1.822;2022-09-17T15:46:29;101351.22;;;22.74;51.94
62544;BME280;48597;49.030;1.822;2022-09-17T15:48:57;101342.19;;;22.75;51.86
62544;BME280;48597;49.030;1.822;2022-09-17T15:51:26;101347.56;;;22.75;51.61
62544;BME280;48597;49.030;1.822;2022-09-17T15:53:55;101345.84;;;22.74;51.72
62544;BME280;48597;49.030;1.822;2022-09-17T15:56:25;101343.88;;;22.76;51.48
62544;BME280;48597;49.030;1.822;2022-09-17T15:58:54;101347.56;;;22.75;51.72
62544;BME280;48597;49.030;1.822;2022-09-17T16:08:53;101355.59;;;22.75;52.07
62544;BME280;48597;49.030;1.822;2022-09-17T16:11:21;101359.97;;;22.76;52.59
62544;BME280;48597;49.030;1.822;2022-09-17T16:13:47;101350.06;;;22.77;52.80
62544;BME280;48597;49.030;1.822;2022-09-17T16:16:16;101362.47;;;22.78;52.81
62544;BME280;48597;49.030;1.822;2022-09-17T16:18:42;101358.94;;;22.77;52.67